createdAt,value
2018-08-23T00:00:43.515Z,46.47
2018-08-23T00:01:49.018Z,51.70
2018-08-23T00:02:55.414Z,53.43
2018-08-23T00:04:05.733Z,55.50
2018-08-23T00:05:11.234Z,55.73
2018-08-23T00:06:16.851Z,54.33
2018-08-23T00:07:22.607Z,54.37
2018-08-23T00:08:28.086Z,52.03
2018-08-23T00:09:35.658Z,50.23
2018-08-23T00:10:41.125Z,52.50
2018-08-23T00:11:47.711Z,53.83
2018-08-23T00:12:59.716Z,52.20
2018-08-23T00:14:05.297Z,49.10
2018-08-23T00:15:15.244Z,60.50
2018-08-23T00:16:33.763Z,54.00
2018-08-23T00:17:46.071Z,50.67
2018-08-23T00:18:51.693Z,52.03
2018-08-23T00:19:57.508Z,50.13
2018-08-23T00:21:03.707Z,50.50
2018-08-23T00:22:12.287Z,55.63
2018-08-23T00:23:18.347Z,56.43
2018-08-23T00:24:24.637Z,51.07
2018-08-23T00:25:30.282Z,50.47
2018-08-23T00:26:36.544Z,47.83
2018-08-23T00:27:43.375Z,53.37
2018-08-23T00:28:48.958Z,50.90
2018-08-23T00:29:54.489Z,49.30
2018-08-23T00:31:00.102Z,59.70
2018-08-23T00:32:07.783Z,62.37
2018-08-23T00:33:13.237Z,65.80
2018-08-23T00:34:18.773Z,59.47
2018-08-23T00:35:25.091Z,49.73
2018-08-23T00:36:30.696Z,61.50
2018-08-23T00:37:38.593Z,57.73
2018-08-23T00:38:44.197Z,53.57
2018-08-23T00:39:49.809Z,55.57
2018-08-23T00:40:55.250Z,49.40
2018-08-23T00:42:05.494Z,61.37
2018-08-23T00:43:12.874Z,58.17
2018-08-23T00:44:18.961Z,58.90
2018-08-23T00:45:24.488Z,54.77
2018-08-23T00:46:30.033Z,61.73
2018-08-23T00:47:35.576Z,62.47
2018-08-23T00:48:41.025Z,60.30
2018-08-23T00:49:47.005Z,55.53
2018-08-23T00:50:57.593Z,56.97
2018-08-23T00:52:03.297Z,55.30
2018-08-23T00:53:08.806Z,56.60
2018-08-23T00:54:15.402Z,51.10
2018-08-23T00:55:27.678Z,57.93
2018-08-23T00:56:33.173Z,52.83
2018-08-23T00:57:38.877Z,54.53
2018-08-23T00:59:03.369Z,59.20
2018-08-23T01:00:08.939Z,67.73
2018-08-23T01:01:15.597Z,60.80
2018-08-23T01:02:21.053Z,72.20
2018-08-23T01:03:26.568Z,54.10
2018-08-23T01:04:33.550Z,54.83
2018-08-23T01:05:40.288Z,50.70
2018-08-23T01:06:46.366Z,58.70
2018-08-23T01:07:52.968Z,57.80
2018-08-23T01:08:58.642Z,57.30
2018-08-23T01:10:04.137Z,57.00
2018-08-23T01:11:10.592Z,61.60
2018-08-23T01:12:16.300Z,60.17
2018-08-23T01:13:21.837Z,57.47
2018-08-23T01:14:27.316Z,64.00
2018-08-23T01:15:33.454Z,63.27
2018-08-23T01:16:38.938Z,64.70
2018-08-23T01:17:44.537Z,69.10
2018-08-23T01:18:50.232Z,58.80
2018-08-23T01:19:59.530Z,57.73
2018-08-23T01:21:09.812Z,57.07
2018-08-23T01:22:15.388Z,58.27
2018-08-23T01:23:22.394Z,57.33
2018-08-23T01:24:31.442Z,53.80
2018-08-23T01:25:39.213Z,55.90
2018-08-23T01:26:45.595Z,55.60
2018-08-23T01:27:51.131Z,57.47
2018-08-23T01:28:56.560Z,54.53
2018-08-23T01:30:02.063Z,49.17
2018-08-23T01:31:28.868Z,58.00
2018-08-23T01:32:34.477Z,57.27
2018-08-23T01:33:39.918Z,59.57
2018-08-23T01:34:45.877Z,68.37
2018-08-23T01:35:52.359Z,71.27
2018-08-23T01:36:57.862Z,68.13
2018-08-23T01:38:03.317Z,76.80
2018-08-23T01:39:13.369Z,74.00
2018-08-23T01:40:18.935Z,67.60
2018-08-23T01:41:24.468Z,76.97
2018-08-23T01:42:35.217Z,58.20
2018-08-23T01:43:43.213Z,58.70
2018-08-23T01:44:49.739Z,66.30
2018-08-23T01:45:55.350Z,63.20
2018-08-23T01:47:03.244Z,73.47
2018-08-23T01:48:09.977Z,69.30
2018-08-23T01:49:15.608Z,65.03
2018-08-23T01:50:21.129Z,68.03
2018-08-23T01:51:26.556Z,61.90
2018-08-23T01:52:33.341Z,67.93
2018-08-23T01:53:39.546Z,67.27
2018-08-23T01:54:46.243Z,76.20
2018-08-23T01:55:51.749Z,67.37
2018-08-23T01:56:57.812Z,75.13
2018-08-23T01:58:03.286Z,63.97
2018-08-23T01:59:08.726Z,63.80
2018-08-23T02:00:18.167Z,61.67
2018-08-23T02:01:23.712Z,73.10
2018-08-23T02:02:29.281Z,73.53
2018-08-23T02:03:34.813Z,74.17
2018-08-23T02:04:40.314Z,59.67
2018-08-23T02:05:46.895Z,72.37
2018-08-23T02:06:52.516Z,67.70
2018-08-23T02:07:58.028Z,65.53
2018-08-23T02:09:04.377Z,64.10
2018-08-23T02:10:10.094Z,67.33
2018-08-23T02:11:16.106Z,65.60
2018-08-23T02:12:21.747Z,61.23
2018-08-23T02:13:28.981Z,63.47
2018-08-23T02:14:38.469Z,67.97
2018-08-23T02:15:48.897Z,59.57
2018-08-23T02:16:54.662Z,66.43
2018-08-23T02:18:00.111Z,57.53
2018-08-23T02:19:05.805Z,54.87
2018-08-23T02:20:11.330Z,57.33
2018-08-23T02:21:16.959Z,59.40
2018-08-23T02:22:22.449Z,56.53
2018-08-23T02:23:27.877Z,67.93
2018-08-23T02:24:36.125Z,58.80
2018-08-23T02:25:42.080Z,67.43
2018-08-23T02:26:47.639Z,61.90
2018-08-23T02:28:03.832Z,58.20
2018-08-23T02:29:09.322Z,58.13
2018-08-23T02:30:15.326Z,65.33
2018-08-23T02:31:20.826Z,61.47
2018-08-23T02:32:26.433Z,71.97
2018-08-23T02:33:31.896Z,67.53
2018-08-23T02:34:43.890Z,59.90
2018-08-23T02:36:19.390Z,59.97
2018-08-23T02:37:25.076Z,57.33
2018-08-23T02:38:30.837Z,60.53
2018-08-23T02:39:36.381Z,62.90
2018-08-23T02:40:41.939Z,78.80
2018-08-23T02:41:48.434Z,71.60
2018-08-23T02:42:54.054Z,85.27
2018-08-23T02:43:59.673Z,68.60
2018-08-23T02:45:09.229Z,65.80
2018-08-23T02:46:14.884Z,66.27
2018-08-23T02:47:20.441Z,68.13
2018-08-23T02:48:25.988Z,64.93
2018-08-23T02:49:32.085Z,64.90
2018-08-23T02:50:37.755Z,77.80
2018-08-23T02:51:48.234Z,73.33
2018-08-23T02:52:53.850Z,72.57
2018-08-23T02:53:59.551Z,71.27
2018-08-23T02:55:05.137Z,68.83
2018-08-23T02:56:14.168Z,64.67
2018-08-23T02:57:19.673Z,73.60
2018-08-23T02:58:26.161Z,71.07
2018-08-23T02:59:32.062Z,71.90
2018-08-23T03:00:42.721Z,71.67
2018-08-23T03:01:50.346Z,63.10
2018-08-23T03:02:55.995Z,70.50
2018-08-23T03:04:12.975Z,73.93
2018-08-23T03:05:22.592Z,69.50
2018-08-23T03:06:34.872Z,57.83
2018-08-23T03:07:41.029Z,55.70
2018-08-23T03:08:46.859Z,51.57
2018-08-23T03:09:52.329Z,55.17
2018-08-23T03:10:57.814Z,57.57
2018-08-23T03:12:18.838Z,62.00
2018-08-23T03:13:27.001Z,59.10
2018-08-23T03:14:32.454Z,61.30
2018-08-23T03:15:37.940Z,55.73
2018-08-23T03:17:14.114Z,51.77
2018-08-23T03:18:19.682Z,51.73
2018-08-23T03:19:25.146Z,53.10
2018-08-23T03:20:30.729Z,64.10
2018-08-23T03:21:36.217Z,60.87
2018-08-23T03:22:42.444Z,66.43
2018-08-23T03:23:48.173Z,56.80
2018-08-23T03:24:55.390Z,56.17
2018-08-23T03:26:00.808Z,58.40
2018-08-23T03:27:06.262Z,56.97
2018-08-23T03:28:12.286Z,50.97
2018-08-23T03:29:18.010Z,44.27
2018-08-23T03:30:24.214Z,51.00
2018-08-23T03:31:29.658Z,47.53
2018-08-23T03:32:35.085Z,45.03
2018-08-23T03:33:40.514Z,47.30
2018-08-23T03:34:46.099Z,57.33
2018-08-23T03:35:53.621Z,81.33
2018-08-23T03:36:59.193Z,184.73
2018-08-23T03:38:04.682Z,53.23
2018-08-23T03:39:10.681Z,53.53
2018-08-23T03:40:17.139Z,56.40
2018-08-23T03:41:23.764Z,50.23
2018-08-23T03:42:29.589Z,50.07
2018-08-23T03:43:35.123Z,56.07
2018-08-23T03:44:40.589Z,52.63
2018-08-23T03:45:46.662Z,57.83
2018-08-23T03:46:55.417Z,53.50
2018-08-23T03:48:00.889Z,59.73
2018-08-23T03:49:06.592Z,55.50
2018-08-23T03:50:12.008Z,58.80
2018-08-23T03:51:18.004Z,58.10
2018-08-23T03:52:27.529Z,56.87
2018-08-23T03:53:49.180Z,56.50
2018-08-23T03:54:59.720Z,57.17
2018-08-23T03:56:10.162Z,55.27
2018-08-23T03:57:18.481Z,52.60
2018-08-23T03:58:24.024Z,57.73
2018-08-23T03:59:29.757Z,50.60
2018-08-23T04:00:40.321Z,52.67
2018-08-23T04:01:45.902Z,58.70
2018-08-23T04:02:52.269Z,57.57
2018-08-23T04:03:57.954Z,68.00
2018-08-23T04:05:12.311Z,56.63
2018-08-23T04:06:32.528Z,65.33
2018-08-23T04:07:39.577Z,69.40
2018-08-23T04:08:46.574Z,63.50
2018-08-23T04:09:52.468Z,63.73
2018-08-23T04:10:57.873Z,63.03
2018-08-23T04:12:05.651Z,68.67
2018-08-23T04:13:11.263Z,73.90
2018-08-23T04:14:17.195Z,69.80
2018-08-23T04:15:26.077Z,72.27
2018-08-23T04:16:32.634Z,63.70
2018-08-23T04:17:38.069Z,65.13
2018-08-23T04:18:43.588Z,70.43
2018-08-23T04:19:50.394Z,76.43
2018-08-23T04:20:57.458Z,70.90
2018-08-23T04:22:02.930Z,73.77
2018-08-23T04:23:08.385Z,67.50
2018-08-23T04:24:14.029Z,80.87
2018-08-23T04:25:19.858Z,69.37
2018-08-23T04:26:26.543Z,62.00
2018-08-23T04:27:31.963Z,78.47
2018-08-23T04:28:37.429Z,80.60
2018-08-23T04:29:47.942Z,100.80
2018-08-23T04:30:53.411Z,92.93
2018-08-23T04:31:58.933Z,87.37
2018-08-23T04:33:04.408Z,95.43
2018-08-23T04:34:09.871Z,107.80
2018-08-23T04:35:34.636Z,98.37
2018-08-23T04:36:40.507Z,86.80
2018-08-23T04:37:46.271Z,78.80
2018-08-23T04:38:55.762Z,73.87
2018-08-23T04:40:06.210Z,72.97
2018-08-23T04:41:13.666Z,71.73
2018-08-23T04:42:19.534Z,71.43
2018-08-23T04:43:25.418Z,73.87
2018-08-23T04:44:42.721Z,73.00
2018-08-23T04:45:48.521Z,79.40
2018-08-23T04:46:54.049Z,73.20
2018-08-23T04:48:09.509Z,70.90
2018-08-23T04:49:15.116Z,69.60
2018-08-23T04:50:20.745Z,71.17
2018-08-23T04:51:26.224Z,70.30
2018-08-23T04:52:31.710Z,68.17
2018-08-23T04:53:37.162Z,72.50
2018-08-23T04:54:42.657Z,64.90
2018-08-23T04:55:48.191Z,72.73
2018-08-23T04:56:53.831Z,69.93
2018-08-23T04:58:00.283Z,84.77
2018-08-23T04:59:06.154Z,70.77
2018-08-23T05:00:11.636Z,82.90
2018-08-23T05:01:17.384Z,75.40
2018-08-23T05:02:22.970Z,73.20
2018-08-23T05:03:28.441Z,74.33
2018-08-23T05:04:33.961Z,78.30
2018-08-23T05:05:39.366Z,69.20
2018-08-23T05:06:45.151Z,63.83
2018-08-23T05:07:50.731Z,63.43
2018-08-23T05:08:56.139Z,64.17
2018-08-23T05:10:01.809Z,61.70
2018-08-23T05:11:07.451Z,64.97
2018-08-23T05:12:13.014Z,61.93
2018-08-23T05:13:18.514Z,60.10
2018-08-23T05:14:23.969Z,65.07
2018-08-23T05:15:29.504Z,64.00
2018-08-23T05:16:35.101Z,73.40
2018-08-23T05:17:41.077Z,63.67
2018-08-23T05:18:46.682Z,55.87
2018-08-23T05:19:52.208Z,75.10
2018-08-23T05:20:57.687Z,68.53
2018-08-23T05:22:03.106Z,61.53
2018-08-23T05:23:08.620Z,66.00
2018-08-23T05:24:14.766Z,72.27
2018-08-23T05:25:22.455Z,70.93
2018-08-23T05:26:27.985Z,67.33
2018-08-23T05:27:35.372Z,75.57
2018-08-23T05:28:43.637Z,71.50
2018-08-23T05:29:49.161Z,69.40
2018-08-23T05:30:54.773Z,68.53
2018-08-23T05:32:00.269Z,77.63
2018-08-23T05:33:09.913Z,55.97
2018-08-23T05:34:15.493Z,72.10
2018-08-23T05:35:21.177Z,74.60
2018-08-23T05:36:26.634Z,75.70
2018-08-23T05:37:32.053Z,74.40
2018-08-23T05:38:37.533Z,85.23
2018-08-23T05:39:52.365Z,86.27
2018-08-23T05:41:02.941Z,65.87
2018-08-23T05:42:08.413Z,67.17
2018-08-23T05:43:14.698Z,68.90
2018-08-23T05:44:20.810Z,72.53
2018-08-23T05:45:37.019Z,67.20
2018-08-23T05:46:47.841Z,68.93
2018-08-23T05:47:53.350Z,75.43
2018-08-23T05:48:58.782Z,68.20
2018-08-23T05:50:04.272Z,67.90
2018-08-23T05:51:12.056Z,66.57
2018-08-23T05:52:17.636Z,75.80
2018-08-23T05:53:23.113Z,74.40
2018-08-23T05:54:28.618Z,68.57
2018-08-23T05:55:34.069Z,72.37
2018-08-23T05:56:39.545Z,62.20
2018-08-23T05:57:45.277Z,62.30
2018-08-23T05:58:50.924Z,66.93
2018-08-23T05:59:56.624Z,72.47
2018-08-23T06:01:02.554Z,61.53
2018-08-23T06:02:08.078Z,66.20
2018-08-23T06:03:14.964Z,66.93
2018-08-23T06:04:36.013Z,68.33
2018-08-23T06:05:41.448Z,64.83
2018-08-23T06:06:47.017Z,67.20
2018-08-23T06:07:52.542Z,62.17
2018-08-23T06:09:00.699Z,76.93
2018-08-23T06:10:06.318Z,64.97
2018-08-23T06:11:12.850Z,77.53
2018-08-23T06:12:18.464Z,63.33
2018-08-23T06:13:24.089Z,63.07
2018-08-23T06:14:29.572Z,61.70
2018-08-23T06:15:39.152Z,61.53
2018-08-23T06:16:49.491Z,66.33
2018-08-23T06:17:54.943Z,68.93
2018-08-23T06:19:00.580Z,67.77
2018-08-23T06:20:06.583Z,64.53
2018-08-23T06:21:12.059Z,65.37
2018-08-23T06:22:17.614Z,68.70
2018-08-23T06:23:27.639Z,65.47
2018-08-23T06:24:33.141Z,73.10
2018-08-23T06:25:38.651Z,72.27
2018-08-23T06:26:49.426Z,63.43
2018-08-23T06:27:55.285Z,70.30
2018-08-23T06:29:00.765Z,61.73
2018-08-23T06:30:06.943Z,70.00
2018-08-23T06:31:12.512Z,71.33
2018-08-23T06:32:18.936Z,75.30
2018-08-23T06:33:41.013Z,63.90
2018-08-23T06:34:53.300Z,71.70
2018-08-23T06:35:58.825Z,72.43
2018-08-23T06:37:04.789Z,75.00
2018-08-23T06:38:10.213Z,72.00
2018-08-23T06:39:15.718Z,67.37
2018-08-23T06:40:21.290Z,68.07
2018-08-23T06:41:26.790Z,61.97
2018-08-23T06:42:46.399Z,64.83
2018-08-23T06:43:51.897Z,60.53
2018-08-23T06:44:57.353Z,67.17
2018-08-23T06:46:03.403Z,61.10
2018-08-23T06:47:10.326Z,60.70
2018-08-23T06:48:15.802Z,71.53
2018-08-23T06:49:21.268Z,71.00
2018-08-23T06:50:27.150Z,67.43
2018-08-23T06:51:32.633Z,62.50
2018-08-23T06:52:43.418Z,56.23
2018-08-23T06:53:52.776Z,65.53
2018-08-23T06:54:58.241Z,56.33
2018-08-23T06:56:03.715Z,65.30
2018-08-23T06:57:09.767Z,52.33
2018-08-23T06:58:15.403Z,60.27
2018-08-23T06:59:20.962Z,59.23
2018-08-23T07:00:27.032Z,64.43
2018-08-23T07:01:39.292Z,64.17
2018-08-23T07:02:47.920Z,55.67
2018-08-23T07:03:58.126Z,58.33
2018-08-23T07:05:03.631Z,55.40
2018-08-23T07:06:09.183Z,55.00
2018-08-23T07:07:18.137Z,56.43
2018-08-23T07:08:24.897Z,56.87
2018-08-23T07:09:33.041Z,54.60
2018-08-23T07:10:38.537Z,57.33
2018-08-23T07:11:44.357Z,55.27
2018-08-23T07:12:50.195Z,57.03
2018-08-23T07:14:00.893Z,58.60
2018-08-23T07:15:06.657Z,57.83
2018-08-23T07:16:12.378Z,51.87
2018-08-23T07:17:22.947Z,52.50
2018-08-23T07:18:29.876Z,54.97
2018-08-23T07:19:35.334Z,56.60
2018-08-23T07:20:40.900Z,59.57
2018-08-23T07:21:46.484Z,57.63
2018-08-23T07:22:51.961Z,55.20
2018-08-23T07:23:57.435Z,58.93
2018-08-23T07:25:02.919Z,67.30
2018-08-23T07:26:08.436Z,53.83
2018-08-23T07:27:15.110Z,59.13
2018-08-23T07:28:20.862Z,53.43
2018-08-23T07:29:26.350Z,55.57
2018-08-23T07:30:31.970Z,62.97
2018-08-23T07:31:42.025Z,62.83
2018-08-23T07:32:49.028Z,59.27
2018-08-23T07:33:54.493Z,63.03
2018-08-23T07:35:05.729Z,63.70
2018-08-23T07:36:25.123Z,58.83
2018-08-23T07:37:31.632Z,65.07
2018-08-23T07:38:37.153Z,63.20
2018-08-23T07:39:46.700Z,57.23
2018-08-23T07:40:52.349Z,59.73
2018-08-23T07:41:57.839Z,64.07
2018-08-23T07:43:03.748Z,70.07
2018-08-23T07:44:09.170Z,62.90
2018-08-23T07:45:14.873Z,58.43
2018-08-23T07:46:20.398Z,60.57
2018-08-23T07:47:26.166Z,65.13
2018-08-23T07:48:31.775Z,56.50
2018-08-23T07:49:37.280Z,59.17
2018-08-23T07:50:42.691Z,56.97
2018-08-23T07:51:48.240Z,61.37
2018-08-23T07:52:54.634Z,60.87
2018-08-23T07:54:04.208Z,65.60
2018-08-23T07:55:09.814Z,58.07
2018-08-23T07:56:25.105Z,60.47
2018-08-23T07:57:33.470Z,55.83
2018-08-23T07:58:39.062Z,61.17
2018-08-23T07:59:44.681Z,62.77
2018-08-23T08:00:50.335Z,60.00
2018-08-23T08:01:55.850Z,65.03
2018-08-23T08:03:01.392Z,63.53
2018-08-23T08:04:10.909Z,58.17
2018-08-23T08:05:17.159Z,60.70
2018-08-23T08:06:23.802Z,58.80
2018-08-23T08:07:31.491Z,57.57
2018-08-23T08:08:38.025Z,53.63
2018-08-23T08:09:44.111Z,57.03
2018-08-23T08:10:49.832Z,53.87
2018-08-23T08:12:01.684Z,56.40
2018-08-23T08:13:07.369Z,51.53
2018-08-23T08:14:18.009Z,53.07
2018-08-23T08:15:23.649Z,56.57
2018-08-23T08:16:32.989Z,55.73
2018-08-23T08:17:38.652Z,51.73
2018-08-23T08:18:44.154Z,55.90
2018-08-23T08:19:58.821Z,56.67
2018-08-23T08:21:04.819Z,51.47
2018-08-23T08:22:10.402Z,56.33
2018-08-23T08:23:17.225Z,51.17
2018-08-23T08:24:22.737Z,62.53
2018-08-23T08:25:28.187Z,54.13
2018-08-23T08:26:33.861Z,55.47
2018-08-23T08:27:40.282Z,51.27
2018-08-23T08:28:45.892Z,51.63
2018-08-23T08:29:51.409Z,57.17
2018-08-23T08:30:59.699Z,52.93
2018-08-23T08:32:05.305Z,59.30
2018-08-23T08:33:13.871Z,58.67
2018-08-23T08:34:19.521Z,58.33
2018-08-23T08:35:24.990Z,58.30
2018-08-23T08:36:31.717Z,54.13
2018-08-23T08:37:37.212Z,53.27
2018-08-23T08:38:42.734Z,54.80
2018-08-23T08:39:48.272Z,60.90
2018-08-23T08:40:54.793Z,59.43
2018-08-23T08:42:00.910Z,61.90
2018-08-23T08:43:07.028Z,52.43
2018-08-23T08:44:12.959Z,53.20
2018-08-23T08:45:18.571Z,53.17
2018-08-23T08:46:24.206Z,54.20
2018-08-23T08:47:29.666Z,54.27
2018-08-23T08:48:35.986Z,50.43
2018-08-23T08:49:41.869Z,57.70
2018-08-23T08:51:05.898Z,50.87
2018-08-23T08:52:11.488Z,48.30
2018-08-23T08:53:16.997Z,51.87
2018-08-23T08:54:23.431Z,51.07
2018-08-23T08:55:29.246Z,59.33
2018-08-23T08:56:41.502Z,46.27
2018-08-23T08:57:47.951Z,49.60
2018-08-23T08:58:53.968Z,47.27
2018-08-23T08:59:59.803Z,51.30
2018-08-23T09:01:05.864Z,54.07
2018-08-23T09:02:11.270Z,55.70
2018-08-23T09:03:17.010Z,53.33
2018-08-23T09:04:27.597Z,51.43
2018-08-23T09:05:33.151Z,59.37
2018-08-23T09:06:45.901Z,51.20
2018-08-23T09:07:51.489Z,47.90
2018-08-23T09:08:56.972Z,48.23
2018-08-23T09:10:02.560Z,48.53
2018-08-23T09:11:08.226Z,49.30
2018-08-23T09:12:14.536Z,46.27
2018-08-23T09:13:21.017Z,51.60
2018-08-23T09:14:26.993Z,54.70
2018-08-23T09:15:32.495Z,53.77
2018-08-23T09:16:37.960Z,49.17
2018-08-23T09:17:44.809Z,43.87
2018-08-23T09:19:02.128Z,50.53
2018-08-23T09:20:14.185Z,50.27
2018-08-23T09:21:19.873Z,48.00
2018-08-23T09:22:25.384Z,52.80
2018-08-23T09:23:30.873Z,43.10
2018-08-23T09:24:37.119Z,50.53
2018-08-23T09:25:43.729Z,44.70
2018-08-23T09:26:49.902Z,47.13
2018-08-23T09:27:55.345Z,41.13
2018-08-23T09:29:00.847Z,45.53
2018-08-23T09:30:11.566Z,45.83
2018-08-23T09:31:17.515Z,47.10
2018-08-23T09:32:28.225Z,47.00
2018-08-23T09:33:33.762Z,43.63
2018-08-23T09:34:40.316Z,47.37
2018-08-23T09:35:45.905Z,47.43
2018-08-23T09:36:51.810Z,40.37
2018-08-23T09:37:58.408Z,45.63
2018-08-23T09:39:04.001Z,41.77
2018-08-23T09:40:09.891Z,45.67
2018-08-23T09:41:15.553Z,41.20
2018-08-23T09:42:21.071Z,43.57
2018-08-23T09:43:26.600Z,41.23
2018-08-23T09:44:32.036Z,43.60
2018-08-23T09:45:38.539Z,43.83
2018-08-23T09:46:52.814Z,46.80
2018-08-23T09:47:58.210Z,47.37
2018-08-23T09:49:03.752Z,43.23
2018-08-23T09:50:09.321Z,49.90
2018-08-23T09:51:20.188Z,41.90
2018-08-23T09:52:30.742Z,43.30
2018-08-23T09:53:36.182Z,43.57
2018-08-23T09:54:41.612Z,37.73
2018-08-23T09:55:48.848Z,40.70
2018-08-23T09:56:54.477Z,48.83
2018-08-23T09:58:00.370Z,44.90
2018-08-23T09:59:05.853Z,46.53
2018-08-23T10:00:15.538Z,41.40
2018-08-23T10:01:26.285Z,38.03
2018-08-23T10:02:37.004Z,42.67
2018-08-23T10:03:47.558Z,39.57
2018-08-23T10:04:56.394Z,47.53
2018-08-23T10:07:04.977Z,42.27
2018-08-23T10:08:15.851Z,40.30
2018-08-23T10:09:23.545Z,45.13
2018-08-23T10:10:34.098Z,43.00
2018-08-23T10:11:44.745Z,47.50
2018-08-23T10:12:55.410Z,51.80
2018-08-23T10:14:06.009Z,50.33
2018-08-23T10:15:16.720Z,47.90
2018-08-23T10:16:27.485Z,41.63
2018-08-23T10:17:38.090Z,49.93
2018-08-23T10:18:48.906Z,60.13
2018-08-23T10:19:59.497Z,46.83
2018-08-23T10:21:05.108Z,50.07
2018-08-23T10:22:15.722Z,53.17
2018-08-23T10:23:24.078Z,51.60
2018-08-23T10:24:33.161Z,49.87
2018-08-23T10:25:44.560Z,50.80
2018-08-23T10:26:50.219Z,52.73
2018-08-23T10:27:55.750Z,47.60
2018-08-23T10:29:01.233Z,49.70
2018-08-23T10:30:06.841Z,52.40
2018-08-23T10:31:12.399Z,53.03
2018-08-23T10:32:17.964Z,52.33
2018-08-23T10:33:23.497Z,62.00
2018-08-23T10:34:29.062Z,53.03
2018-08-23T10:35:34.973Z,50.70
2018-08-23T10:36:40.474Z,52.80
2018-08-23T10:37:46.006Z,50.43
2018-08-23T10:38:51.529Z,58.87
2018-08-23T10:39:57.055Z,47.40
2018-08-23T10:41:05.182Z,48.27
2018-08-23T10:42:17.886Z,51.87
2018-08-23T10:43:28.648Z,52.27
2018-08-23T10:44:34.191Z,52.20
2018-08-23T10:45:40.263Z,53.00
2018-08-23T10:46:51.551Z,47.00
2018-08-23T10:48:02.261Z,55.20
2018-08-23T10:49:07.812Z,59.03
2018-08-23T10:50:13.352Z,50.20
2018-08-23T10:51:18.841Z,52.00
2018-08-23T10:52:24.397Z,46.67
2018-08-23T10:53:29.818Z,54.03
2018-08-23T10:54:35.665Z,54.83
2018-08-23T10:55:41.461Z,54.00
2018-08-23T10:56:47.037Z,53.37
2018-08-23T10:57:52.737Z,53.20
2018-08-23T10:58:58.196Z,52.73
2018-08-23T11:00:03.907Z,52.23
2018-08-23T11:01:09.374Z,51.70
2018-08-23T11:02:15.058Z,55.87
2018-08-23T11:03:20.654Z,45.70
2018-08-23T11:04:26.140Z,53.93
2018-08-23T11:05:31.606Z,49.13
2018-08-23T11:06:41.230Z,51.17
2018-08-23T11:07:51.981Z,48.77
2018-08-23T11:09:02.638Z,46.20
2018-08-23T11:10:13.294Z,62.20
2018-08-23T11:11:23.866Z,46.03
2018-08-23T11:12:35.360Z,52.37
2018-08-23T11:13:48.099Z,47.10
2018-08-23T11:14:53.605Z,43.97
2018-08-23T11:16:04.177Z,44.37
2018-08-23T11:17:15.130Z,47.73
2018-08-23T11:18:25.828Z,46.23
2018-08-23T11:20:39.001Z,45.30
2018-08-23T11:21:44.453Z,44.47
2018-08-23T11:22:49.923Z,42.67
2018-08-23T11:23:55.505Z,47.47
2018-08-23T11:25:01.322Z,47.87
2018-08-23T11:26:06.832Z,45.20
2018-08-23T11:27:12.321Z,41.13
2018-08-23T11:28:22.405Z,48.93
2018-08-23T11:29:28.183Z,40.90
2018-08-23T11:30:33.714Z,47.20
2018-08-23T11:31:39.393Z,39.80
2018-08-23T11:32:45.373Z,46.63
2018-08-23T11:33:50.862Z,52.63
2018-08-23T11:34:56.478Z,46.07
2018-08-23T11:36:01.954Z,45.07
2018-08-23T11:37:07.497Z,43.40
2018-08-23T11:38:13.025Z,41.33
2018-08-23T11:39:18.966Z,42.27
2018-08-23T11:40:24.437Z,50.27
2018-08-23T11:41:30.055Z,41.23
2018-08-23T11:42:35.635Z,40.37
2018-08-23T11:43:41.622Z,41.03
2018-08-23T11:44:47.161Z,40.77
2018-08-23T11:46:26.277Z,31.83
2018-08-23T11:47:31.733Z,42.77
2018-08-23T11:48:37.241Z,38.60
2018-08-23T11:49:42.742Z,41.07
2018-08-23T11:50:48.298Z,41.50
2018-08-23T11:51:54.119Z,38.43
2018-08-23T11:52:59.703Z,43.03
2018-08-23T11:54:05.233Z,40.67
2018-08-23T11:55:10.687Z,43.10
2018-08-23T11:56:16.357Z,41.20
2018-08-23T11:57:21.883Z,41.90
2018-08-23T11:58:27.370Z,40.60
2018-08-23T11:59:32.914Z,39.47
2018-08-23T12:00:38.466Z,45.30
2018-08-23T12:01:44.094Z,45.17
2018-08-23T12:02:49.941Z,41.13
2018-08-23T12:03:55.466Z,43.00
2018-08-23T12:05:01.794Z,41.23
2018-08-23T12:06:08.717Z,48.23
2018-08-23T12:07:14.198Z,43.53
2018-08-23T12:08:19.778Z,45.43
2018-08-23T12:09:30.541Z,46.13
2018-08-23T12:10:36.023Z,40.90
2018-08-23T12:11:41.433Z,38.33
2018-08-23T12:12:48.497Z,43.33
2018-08-23T12:13:53.937Z,45.27
2018-08-23T12:15:03.144Z,37.60
2018-08-23T12:16:10.704Z,41.50
2018-08-23T12:17:17.075Z,37.47
2018-08-23T12:18:22.848Z,32.57
2018-08-23T12:19:28.248Z,31.70
2018-08-23T12:20:33.773Z,31.43
2018-08-23T12:21:39.241Z,36.53
2018-08-23T12:22:44.745Z,31.30
2018-08-23T12:23:50.259Z,32.50
2018-08-23T12:24:55.778Z,31.97
2018-08-23T12:26:01.503Z,30.40
2018-08-23T12:27:06.899Z,31.80
2018-08-23T12:28:17.607Z,32.93
2018-08-23T12:29:23.163Z,29.50
2018-08-23T12:30:28.774Z,23.50
2018-08-23T12:31:34.245Z,21.57
2018-08-23T12:32:39.709Z,29.07
2018-08-23T12:33:45.778Z,27.40
2018-08-23T12:34:52.431Z,22.80
2018-08-23T12:35:58.010Z,27.93
2018-08-23T12:37:08.678Z,28.93
2018-08-23T12:39:25.563Z,32.20
2018-08-23T12:40:37.667Z,33.83
2018-08-23T12:41:49.987Z,24.60
2018-08-23T12:42:55.562Z,30.80
2018-08-23T12:44:01.022Z,28.20
2018-08-23T12:45:06.565Z,28.60
2018-08-23T12:46:13.228Z,26.63
2018-08-23T12:47:18.746Z,27.40
2018-08-23T12:48:24.234Z,26.53
2018-08-23T12:49:29.972Z,32.40
2018-08-23T12:50:36.338Z,27.43
2018-08-23T12:51:41.810Z,29.60
2018-08-23T12:52:47.369Z,28.90
2018-08-23T12:53:52.903Z,25.77
2018-08-23T12:54:58.357Z,27.97
2018-08-23T12:56:03.805Z,25.10
2018-08-23T12:57:09.485Z,27.40
2018-08-23T12:58:16.095Z,28.10
2018-08-23T12:59:21.590Z,27.23
2018-08-23T13:00:27.010Z,23.40
2018-08-23T13:01:32.555Z,27.20
2018-08-23T13:02:38.024Z,26.30
2018-08-23T13:03:43.446Z,26.90
2018-08-23T13:04:49.268Z,29.83
2018-08-23T13:05:54.766Z,26.10
2018-08-23T13:07:00.253Z,22.80
2018-08-23T13:08:06.732Z,28.60
2018-08-23T13:09:12.165Z,27.27
2018-08-23T13:10:18.095Z,27.00
2018-08-23T13:11:23.674Z,27.47
2018-08-23T13:12:29.191Z,25.53
2018-08-23T13:13:34.635Z,23.20
2018-08-23T13:14:40.061Z,28.93
2018-08-23T13:15:45.667Z,26.60
2018-08-23T13:16:51.214Z,27.40
2018-08-23T13:17:56.654Z,30.67
2018-08-23T13:19:02.068Z,26.10
2018-08-23T13:20:07.634Z,22.50
2018-08-23T13:21:13.151Z,28.50
2018-08-23T13:22:23.829Z,23.27
2018-08-23T13:23:29.288Z,25.87
2018-08-23T13:24:38.814Z,29.80
2018-08-23T13:25:49.311Z,23.47
2018-08-23T13:26:54.885Z,28.87
2018-08-23T13:28:00.370Z,25.67
2018-08-23T13:29:05.959Z,32.00
2018-08-23T13:30:11.506Z,29.50
2018-08-23T13:31:17.353Z,26.97
2018-08-23T13:32:22.793Z,28.03
2018-08-23T13:33:28.224Z,29.13
2018-08-23T13:34:35.218Z,29.50
2018-08-23T13:35:40.716Z,25.23
2018-08-23T13:36:46.537Z,24.63
2018-08-23T13:37:51.974Z,31.00
2018-08-23T13:38:57.503Z,26.50
2018-08-23T13:40:03.022Z,23.83
2018-08-23T13:41:08.517Z,24.47
2018-08-23T13:42:14.010Z,23.43
2018-08-23T13:43:19.507Z,20.57
2018-08-23T13:44:24.945Z,27.00
2018-08-23T13:45:30.508Z,25.50
2018-08-23T13:46:36.046Z,28.87
2018-08-23T13:47:41.477Z,25.10
2018-08-23T13:48:47.167Z,28.00
2018-08-23T13:49:52.754Z,32.20
2018-08-23T13:50:58.211Z,28.30
2018-08-23T13:52:03.800Z,24.50
2018-08-23T13:53:09.335Z,25.90
2018-08-23T13:54:14.939Z,26.93
2018-08-23T13:55:20.798Z,25.57
2018-08-23T13:56:27.346Z,25.27
2018-08-23T13:57:32.851Z,28.47
2018-08-23T13:58:38.317Z,27.53
2018-08-23T13:59:44.077Z,26.53
2018-08-23T14:00:49.686Z,25.70
2018-08-23T14:01:55.306Z,22.70
2018-08-23T14:03:01.101Z,24.63
2018-08-23T14:04:07.012Z,26.37
2018-08-23T14:05:12.552Z,26.63
2018-08-23T14:06:18.146Z,34.40
2018-08-23T14:07:23.671Z,29.93
2018-08-23T14:08:29.029Z,30.13
2018-08-23T14:09:34.470Z,28.23
2018-08-23T14:10:39.881Z,27.10
2018-08-23T14:11:45.795Z,26.53
2018-08-23T14:12:51.789Z,25.47
2018-08-23T14:13:57.264Z,33.67
2018-08-23T14:15:02.769Z,27.20
2018-08-23T14:16:08.411Z,30.37
2018-08-23T14:17:13.899Z,29.70
2018-08-23T14:18:19.663Z,30.47
2018-08-23T14:19:25.217Z,27.77
2018-08-23T14:20:30.581Z,25.37
2018-08-23T14:21:36.090Z,30.37
2018-08-23T14:22:41.590Z,31.17
2018-08-23T14:23:47.112Z,25.43
2018-08-23T14:24:52.658Z,24.90
2018-08-23T14:25:58.122Z,26.10